Terminal Aerodrome Forecast
Issued by NWS

Home | Current Version | Previous Version | Graphics & Text | Print | Product List | Glossary On
Versions: 1 2 3 4 5 6 7 8 9 10 11 12 13 14 15 16
008
FTUS43 KJKL 101238 AAA
TAFSME
TAF AMD
KSME 101238Z 1013/1112 00000KT 1/4SM FZFG OVC002
     FM101400 34003KT P6SM FEW250=

USA.gov is the U.S. government's official web portal to all federal, state and local government web resources and services.